createdAt,value
2022-10-14T00:01:18.536Z,14.20
2022-10-14T00:03:46.197Z,14.20
2022-10-14T00:06:17.959Z,14.20
2022-10-14T00:08:45.968Z,14.20
2022-10-14T00:11:20.356Z,14.10
2022-10-14T00:13:48.538Z,14.10
2022-10-14T00:16:18.489Z,14.10
2022-10-14T00:18:45.437Z,14.10
2022-10-14T00:21:12.785Z,14.10
2022-10-14T00:23:39.839Z,14.10
2022-10-14T00:26:06.905Z,14.10
2022-10-14T00:28:36.851Z,14.10
2022-10-14T00:31:03.971Z,14.10
2022-10-14T00:33:31.725Z,14.10
2022-10-14T00:36:05.153Z,14.10
2022-10-14T00:38:34.833Z,14.10
2022-10-14T00:41:02.608Z,14.10
2022-10-14T00:43:50.735Z,14.10
2022-10-14T00:46:19.338Z,14.10
2022-10-14T00:48:46.596Z,14.10
2022-10-14T00:51:14.275Z,14.10
2022-10-14T00:53:44.196Z,14.20
2022-10-14T00:56:15.537Z,14.20
2022-10-14T00:58:44.635Z,14.20
2022-10-14T01:04:04.966Z,14.20
2022-10-14T01:06:45.490Z,14.10
2022-10-14T01:09:28.534Z,14.20
2022-10-14T01:12:29.596Z,14.20
2022-10-14T01:15:07.367Z,14.10
2022-10-14T01:17:48.022Z,14.10
2022-10-14T01:20:56.626Z,14.10
2022-10-14T01:23:54.963Z,14.10
2022-10-14T01:26:51.812Z,14.10
2022-10-14T01:29:53.755Z,14.10
2022-10-14T01:32:28.703Z,14.10
2022-10-14T01:35:06.987Z,14.10
2022-10-14T01:37:39.475Z,14.10
2022-10-14T01:40:14.904Z,14.10
2022-10-14T01:42:45.869Z,14.10
2022-10-14T01:45:21.705Z,14.10
2022-10-14T01:47:51.419Z,14.10
2022-10-14T01:50:22.461Z,14.10
2022-10-14T01:55:49.038Z,14.10
2022-10-14T01:58:21.484Z,14.10
2022-10-14T02:00:51.313Z,14.10
2022-10-14T02:03:18.768Z,14.00
2022-10-14T02:05:53.505Z,14.00
2022-10-14T02:08:37.541Z,14.00
2022-10-14T02:11:12.267Z,14.00
2022-10-14T02:14:03.790Z,14.00
2022-10-14T02:16:38.125Z,14.00
2022-10-14T02:19:21.355Z,14.00
2022-10-14T02:21:58.457Z,14.00
2022-10-14T02:24:34.048Z,13.90
2022-10-14T02:27:09.190Z,13.90
2022-10-14T02:29:40.653Z,13.90
2022-10-14T02:32:12.943Z,13.90
2022-10-14T02:34:44.993Z,14.00
2022-10-14T02:37:17.519Z,14.00
2022-10-14T02:39:53.970Z,14.00
2022-10-14T02:42:21.468Z,14.00
2022-10-14T02:44:53.560Z,14.00
2022-10-14T02:47:22.174Z,14.00
2022-10-14T02:49:50.535Z,14.00
2022-10-14T02:52:18.559Z,14.00
2022-10-14T02:54:45.746Z,14.00
2022-10-14T02:57:13.226Z,14.00
2022-10-14T02:59:40.076Z,14.00
2022-10-14T03:02:08.154Z,14.00
2022-10-14T03:04:38.687Z,14.00
2022-10-14T03:07:05.843Z,14.00
2022-10-14T03:09:36.805Z,14.00
2022-10-14T03:12:05.456Z,14.00
2022-10-14T03:14:32.962Z,14.00
2022-10-14T03:17:01.117Z,14.00
2022-10-14T03:19:31.040Z,14.00
2022-10-14T03:21:59.933Z,14.00
2022-10-14T03:24:27.706Z,14.00
2022-10-14T03:27:18.091Z,14.00
2022-10-14T03:29:49.133Z,14.00
2022-10-14T03:32:20.864Z,14.00
2022-10-14T03:35:08.113Z,14.00
2022-10-14T03:37:37.017Z,14.10
2022-10-14T03:40:06.622Z,14.10
2022-10-14T03:42:36.938Z,14.10
2022-10-14T03:45:05.132Z,14.10
2022-10-14T03:47:32.690Z,14.10
2022-10-14T03:50:00.765Z,14.10
2022-10-14T03:52:35.698Z,14.10
2022-10-14T03:55:08.604Z,14.20
2022-10-14T03:57:36.129Z,14.20
2022-10-14T04:00:06.696Z,14.20
2022-10-14T04:02:43.250Z,14.20
2022-10-14T04:05:30.574Z,14.20
2022-10-14T04:07:59.777Z,14.20
2022-10-14T04:10:27.643Z,14.20
2022-10-14T04:12:56.342Z,14.20
2022-10-14T04:15:30.309Z,14.20
2022-10-14T04:18:09.716Z,14.20
2022-10-14T04:20:39.734Z,14.20
2022-10-14T04:23:09.819Z,14.20
2022-10-14T04:25:40.285Z,14.20
2022-10-14T04:28:07.886Z,14.20
2022-10-14T04:30:57.795Z,14.20
2022-10-14T04:33:29.043Z,14.20
2022-10-14T04:36:00.459Z,14.20
2022-10-14T04:38:34.308Z,14.20
2022-10-14T04:41:06.237Z,14.10
2022-10-14T04:43:34.185Z,14.10
2022-10-14T04:46:15.973Z,14.10
2022-10-14T04:48:42.983Z,14.20
2022-10-14T04:51:10.546Z,14.20
2022-10-14T04:53:57.971Z,14.20
2022-10-14T04:56:48.102Z,14.20
2022-10-14T04:59:15.541Z,14.20
2022-10-14T05:02:15.048Z,14.20
2022-10-14T05:05:04.572Z,14.20
2022-10-14T05:07:35.626Z,14.20
2022-10-14T05:10:19.676Z,14.20
2022-10-14T05:12:47.353Z,14.20
2022-10-14T05:15:14.679Z,14.20
2022-10-14T05:17:51.553Z,14.20
2022-10-14T05:20:24.006Z,14.20
2022-10-14T05:22:54.277Z,14.20
2022-10-14T05:25:22.848Z,14.20
2022-10-14T05:27:51.903Z,14.20
2022-10-14T05:30:19.107Z,14.20
2022-10-14T05:32:50.484Z,14.20
2022-10-14T05:35:39.833Z,14.20
2022-10-14T05:38:07.491Z,14.20
2022-10-14T05:40:39.876Z,14.20
2022-10-14T05:43:07.394Z,14.20
2022-10-14T05:45:37.145Z,14.20
2022-10-14T05:48:05.223Z,14.20
2022-10-14T05:50:32.197Z,14.20
2022-10-14T05:53:05.806Z,14.20
2022-10-14T05:55:41.588Z,14.20
2022-10-14T05:58:08.894Z,14.20
2022-10-14T06:00:39.939Z,14.10
2022-10-14T06:03:13.505Z,14.10
2022-10-14T06:05:41.205Z,14.10
2022-10-14T06:08:08.733Z,14.10
2022-10-14T06:10:38.176Z,14.10
2022-10-14T06:13:08.409Z,14.20
2022-10-14T06:15:38.058Z,14.20
2022-10-14T06:18:05.794Z,14.20
2022-10-14T06:20:33.460Z,14.20
2022-10-14T06:23:01.404Z,14.20
2022-10-14T06:25:28.770Z,14.20
2022-10-14T06:27:55.678Z,14.20
2022-10-14T06:30:24.244Z,14.20
2022-10-14T06:32:53.278Z,14.20
2022-10-14T06:35:20.478Z,14.20
2022-10-14T06:37:47.658Z,14.20
2022-10-14T06:40:14.801Z,14.20
2022-10-14T06:42:41.659Z,14.20
2022-10-14T06:45:09.663Z,14.20
2022-10-14T06:47:38.359Z,14.20
2022-10-14T06:50:06.809Z,14.20
2022-10-14T06:52:33.947Z,14.20
2022-10-14T06:55:02.266Z,14.20
2022-10-14T06:57:29.285Z,14.20
2022-10-14T06:59:57.175Z,14.20
2022-10-14T07:02:24.767Z,14.20
2022-10-14T07:04:53.369Z,14.20
2022-10-14T07:07:20.172Z,14.20
2022-10-14T07:09:47.003Z,14.10
2022-10-14T07:12:14.020Z,14.10
2022-10-14T07:14:44.198Z,14.10
2022-10-14T07:17:11.073Z,14.10
2022-10-14T07:19:38.221Z,14.10
2022-10-14T07:22:25.066Z,14.10
2022-10-14T07:24:52.246Z,14.10
2022-10-14T07:27:19.287Z,14.10
2022-10-14T07:29:46.762Z,14.20
2022-10-14T07:32:13.821Z,14.20
2022-10-14T07:34:41.241Z,14.20
2022-10-14T07:37:08.111Z,14.20
2022-10-14T07:39:36.324Z,14.20
2022-10-14T07:42:04.420Z,14.20
2022-10-14T07:44:31.580Z,14.30
2022-10-14T07:46:58.375Z,14.30
2022-10-14T07:49:25.404Z,14.40
2022-10-14T07:51:52.525Z,14.50
2022-10-14T07:54:23.272Z,14.60
2022-10-14T07:56:52.623Z,14.60
2022-10-14T07:59:20.989Z,14.70
2022-10-14T08:01:50.012Z,14.70
2022-10-14T08:04:18.105Z,14.80
2022-10-14T08:06:47.846Z,14.80
2022-10-14T08:09:15.064Z,14.80
2022-10-14T08:11:43.788Z,14.80
2022-10-14T08:14:12.766Z,14.70
2022-10-14T08:16:40.599Z,14.70
2022-10-14T08:19:14.159Z,14.80
2022-10-14T08:21:43.618Z,14.80
2022-10-14T08:24:11.417Z,14.70
2022-10-14T08:26:41.293Z,14.70
2022-10-14T08:29:11.814Z,14.70
2022-10-14T08:31:38.948Z,14.60
2022-10-14T08:34:06.078Z,14.60
2022-10-14T08:36:33.241Z,14.50
2022-10-14T08:39:00.476Z,14.50
2022-10-14T08:41:48.692Z,14.60
2022-10-14T08:44:22.299Z,14.50
2022-10-14T08:46:54.006Z,14.50
2022-10-14T08:49:29.465Z,14.50
2022-10-14T08:52:02.445Z,14.60
2022-10-14T08:54:39.019Z,14.70
2022-10-14T08:57:14.260Z,14.80
2022-10-14T08:59:43.054Z,14.90
2022-10-14T09:02:24.482Z,14.90
2022-10-14T09:04:52.402Z,14.80
2022-10-14T09:07:20.996Z,14.80
2022-10-14T09:09:53.464Z,14.90
2022-10-14T09:12:27.740Z,14.90
2022-10-14T09:15:12.084Z,15.00
2022-10-14T09:17:46.358Z,15.00
2022-10-14T09:20:20.792Z,15.10
2022-10-14T09:23:02.050Z,15.40
2022-10-14T09:25:33.521Z,15.80
2022-10-14T09:28:00.981Z,16.70
2022-10-14T09:30:35.798Z,17.00
2022-10-14T09:33:05.305Z,18.30
2022-10-14T09:35:37.076Z,18.60
2022-10-14T09:38:05.073Z,19.40
2022-10-14T09:40:36.071Z,19.60
2022-10-14T09:43:15.836Z,19.60
2022-10-14T09:45:58.875Z,19.90
2022-10-14T09:48:34.612Z,19.60
2022-10-14T09:51:05.782Z,19.10
2022-10-14T09:53:38.023Z,19.10
2022-10-14T09:56:07.857Z,19.20
2022-10-14T09:58:42.465Z,19.10
2022-10-14T10:01:17.931Z,19.00
2022-10-14T10:03:46.399Z,18.70
2022-10-14T10:06:17.501Z,18.40
2022-10-14T10:08:58.513Z,18.10
2022-10-14T10:11:30.889Z,18.20
2022-10-14T10:14:15.452Z,18.20
2022-10-14T10:16:44.298Z,18.10
2022-10-14T10:19:27.864Z,17.90
2022-10-14T10:21:55.635Z,17.80
2022-10-14T10:24:26.158Z,17.70
2022-10-14T10:26:55.787Z,17.50
2022-10-14T10:29:26.617Z,17.90
2022-10-14T10:32:11.379Z,18.20
2022-10-14T10:35:19.477Z,19.00
2022-10-14T10:38:08.215Z,20.20
2022-10-14T10:40:41.180Z,20.90
2022-10-14T10:43:54.522Z,21.30
2022-10-14T10:46:57.115Z,21.90
2022-10-14T10:49:59.142Z,22.40
2022-10-14T10:52:43.267Z,22.80
2022-10-14T10:55:26.185Z,23.00
2022-10-14T10:58:10.010Z,22.80
2022-10-14T11:00:47.958Z,22.20
2022-10-14T11:03:44.894Z,22.00
2022-10-14T11:08:58.715Z,22.60
2022-10-14T11:11:30.435Z,23.10
2022-10-14T11:14:11.140Z,22.90
2022-10-14T11:16:50.505Z,23.30
2022-10-14T11:19:32.574Z,23.20
2022-10-14T11:22:12.371Z,23.10
2022-10-14T11:24:54.643Z,22.40
2022-10-14T11:27:33.328Z,21.20
2022-10-14T11:30:18.734Z,20.60
2022-10-14T11:33:31.617Z,21.30
2022-10-14T11:36:23.218Z,21.70
2022-10-14T11:39:15.245Z,21.80
2022-10-14T11:42:03.679Z,21.40
2022-10-14T11:44:36.829Z,21.20
2022-10-14T11:47:12.736Z,21.20
2022-10-14T11:49:48.578Z,21.10
2022-10-14T11:52:26.106Z,20.80
2022-10-14T11:55:00.086Z,20.40
2022-10-14T11:57:36.035Z,20.00
2022-10-14T12:03:11.520Z,19.50
2022-10-14T12:05:45.805Z,19.60
2022-10-14T12:08:23.015Z,19.30
2022-10-14T12:10:57.634Z,19.00
2022-10-14T12:13:34.609Z,18.80
2022-10-14T12:16:04.318Z,18.50
2022-10-14T12:18:32.525Z,18.20
2022-10-14T12:21:14.992Z,17.90
2022-10-14T12:23:47.064Z,17.70
2022-10-14T12:26:29.948Z,17.60
2022-10-14T12:29:01.497Z,17.60
2022-10-14T12:31:36.164Z,17.50
2022-10-14T12:34:32.194Z,17.60
2022-10-14T12:37:00.252Z,17.60
2022-10-14T12:39:42.962Z,17.60
2022-10-14T12:42:13.409Z,17.70
2022-10-14T12:44:48.541Z,17.70
2022-10-14T12:47:23.183Z,17.80
2022-10-14T12:49:54.918Z,17.90
2022-10-14T12:52:28.621Z,18.00
2022-10-14T12:54:56.313Z,18.30
2022-10-14T12:57:29.790Z,18.50
2022-10-14T13:00:01.965Z,18.70
2022-10-14T13:02:33.823Z,19.00
2022-10-14T13:05:07.225Z,19.30
2022-10-14T13:07:46.644Z,19.20
2022-10-14T13:11:08.637Z,19.10
2022-10-14T13:13:57.738Z,18.90
2022-10-14T13:17:27.271Z,18.80
2022-10-14T13:19:54.629Z,18.60
2022-10-14T13:22:41.157Z,18.60
2022-10-14T13:25:20.741Z,19.20
2022-10-14T13:28:04.467Z,19.80
2022-10-14T13:30:54.019Z,19.90
2022-10-14T13:33:32.007Z,19.60
2022-10-14T13:36:13.477Z,19.40
2022-10-14T13:38:51.382Z,19.20
2022-10-14T13:41:22.503Z,18.90
2022-10-14T13:43:55.445Z,18.70
2022-10-14T13:46:32.062Z,18.40
2022-10-14T13:51:51.500Z,18.00
2022-10-14T13:54:22.972Z,17.80
2022-10-14T14:02:42.524Z,17.40
2022-10-14T14:05:18.689Z,17.30
2022-10-14T14:10:42.589Z,17.10
2022-10-14T14:13:19.749Z,17.00
2022-10-14T14:15:51.125Z,16.90
2022-10-14T14:18:43.456Z,16.80
2022-10-14T14:21:26.866Z,16.80
2022-10-14T14:23:57.312Z,16.70
2022-10-14T14:26:37.057Z,16.70
2022-10-14T14:29:06.856Z,16.70
2022-10-14T14:32:01.274Z,16.70
2022-10-14T14:34:24.080Z,16.70
2022-10-14T14:36:55.694Z,16.60
2022-10-14T14:39:30.981Z,16.60
2022-10-14T14:42:00.393Z,16.50
2022-10-14T14:44:31.556Z,16.50
2022-10-14T14:47:03.636Z,16.40
2022-10-14T14:49:32.088Z,16.30
2022-10-14T14:52:05.303Z,16.30
2022-10-14T14:54:32.341Z,16.20
2022-10-14T14:57:04.633Z,16.20
2022-10-14T14:59:36.284Z,16.30
2022-10-14T15:02:14.379Z,16.30
2022-10-14T15:04:42.761Z,16.30
2022-10-14T15:07:21.038Z,16.30
2022-10-14T15:09:53.441Z,16.30
2022-10-14T15:12:24.214Z,16.30
2022-10-14T15:14:54.165Z,16.30
2022-10-14T15:17:30.609Z,16.20
2022-10-14T15:20:28.142Z,16.20
2022-10-14T15:22:57.451Z,16.20
2022-10-14T15:25:30.365Z,16.10
2022-10-14T15:27:59.632Z,16.10
2022-10-14T15:30:31.420Z,16.00
2022-10-14T15:33:01.596Z,16.00
2022-10-14T15:35:29.320Z,16.00
2022-10-14T15:37:57.671Z,16.00
2022-10-14T15:40:29.749Z,15.90
2022-10-14T15:42:57.255Z,15.90
2022-10-14T15:45:24.718Z,15.90
2022-10-14T15:47:59.906Z,15.90
2022-10-14T15:50:27.355Z,15.80
2022-10-14T15:52:55.232Z,15.80
2022-10-14T15:55:26.685Z,15.80
2022-10-14T15:57:54.091Z,15.80
2022-10-14T16:00:23.694Z,15.80
2022-10-14T16:02:55.173Z,15.70
2022-10-14T16:05:22.537Z,15.70
2022-10-14T16:07:49.837Z,15.70
2022-10-14T16:10:21.507Z,15.70
2022-10-14T16:12:50.796Z,15.60
2022-10-14T16:15:30.093Z,15.60
2022-10-14T16:17:57.187Z,15.60
2022-10-14T16:20:24.232Z,15.50
2022-10-14T16:22:51.587Z,15.50
2022-10-14T16:25:23.728Z,15.40
2022-10-14T16:27:52.100Z,15.40
2022-10-14T16:30:19.212Z,15.40
2022-10-14T16:32:46.213Z,15.30
2022-10-14T16:35:13.403Z,15.30
2022-10-14T16:37:41.929Z,15.30
2022-10-14T16:40:11.516Z,15.30
2022-10-14T16:42:38.881Z,15.30
2022-10-14T16:45:08.624Z,15.20
2022-10-14T16:47:35.798Z,15.20
2022-10-14T16:50:04.210Z,15.20
2022-10-14T16:52:31.383Z,15.20
2022-10-14T16:54:58.465Z,15.20
2022-10-14T16:57:25.497Z,15.20
2022-10-14T16:59:52.493Z,15.20
2022-10-14T17:02:20.939Z,15.10
2022-10-14T17:04:48.392Z,15.10
2022-10-14T17:07:15.400Z,15.10
2022-10-14T17:09:42.195Z,15.10
2022-10-14T17:12:12.820Z,15.10
2022-10-14T17:14:41.576Z,15.10
2022-10-14T17:17:09.150Z,15.10
2022-10-14T17:19:37.622Z,15.00
2022-10-14T17:22:04.919Z,15.00
2022-10-14T17:24:32.188Z,15.00
2022-10-14T17:26:59.028Z,15.00
2022-10-14T17:29:26.183Z,15.00
2022-10-14T17:31:53.369Z,15.00
2022-10-14T17:34:20.731Z,15.00
2022-10-14T17:36:49.006Z,15.00
2022-10-14T17:39:21.461Z,15.00
2022-10-14T17:42:00.844Z,15.00
2022-10-14T17:44:28.052Z,15.00
2022-10-14T17:46:55.644Z,15.00
2022-10-14T17:49:22.494Z,15.00
2022-10-14T17:51:51.586Z,15.00
2022-10-14T17:54:18.895Z,15.00
2022-10-14T17:56:45.780Z,15.00
2022-10-14T17:59:13.087Z,15.00
2022-10-14T18:02:01.619Z,15.00
2022-10-14T18:04:27.842Z,15.00
2022-10-14T18:06:56.242Z,15.00
2022-10-14T18:09:23.562Z,15.00
2022-10-14T18:14:38.248Z,14.90
2022-10-14T18:17:05.438Z,14.90
2022-10-14T18:19:33.385Z,14.90
2022-10-14T18:22:02.156Z,14.90
2022-10-14T18:24:29.032Z,14.90
2022-10-14T18:26:55.956Z,14.90
2022-10-14T18:29:23.836Z,14.90
2022-10-14T18:34:18.879Z,14.90
2022-10-14T18:36:46.218Z,14.90
2022-10-14T18:39:14.498Z,14.90
2022-10-14T18:41:41.554Z,14.90
2022-10-14T18:44:08.841Z,14.90
2022-10-14T18:46:37.933Z,14.90
2022-10-14T18:49:08.769Z,14.90
2022-10-14T18:51:38.793Z,14.90
2022-10-14T18:54:13.575Z,14.90
2022-10-14T18:56:43.213Z,14.90
2022-10-14T18:59:13.870Z,14.90
2022-10-14T19:01:41.720Z,14.90
2022-10-14T19:04:12.682Z,15.00
2022-10-14T19:06:40.562Z,15.00
2022-10-14T19:09:07.727Z,15.00
2022-10-14T19:11:34.888Z,15.00
2022-10-14T19:14:04.578Z,15.00
2022-10-14T19:16:34.708Z,15.00
2022-10-14T19:19:05.008Z,15.00
2022-10-14T19:21:32.208Z,15.00
2022-10-14T19:24:01.720Z,15.00
2022-10-14T19:26:32.637Z,15.00
2022-10-14T19:29:01.706Z,15.00
2022-10-14T19:31:33.700Z,15.00
2022-10-14T19:34:03.651Z,15.00
2022-10-14T19:36:34.357Z,15.00
2022-10-14T19:39:01.940Z,15.00
2022-10-14T19:41:31.336Z,15.00
2022-10-14T19:43:59.829Z,15.00
2022-10-14T19:46:30.040Z,15.00
2022-10-14T19:48:59.143Z,15.00
2022-10-14T19:51:26.832Z,15.00
2022-10-14T19:53:54.999Z,15.00
2022-10-14T19:56:22.350Z,14.90
2022-10-14T19:58:51.814Z,14.90
2022-10-14T20:01:21.526Z,14.80
2022-10-14T20:03:50.668Z,14.80
2022-10-14T20:06:18.338Z,14.80
2022-10-14T20:08:45.201Z,14.80
2022-10-14T20:11:14.805Z,14.70
2022-10-14T20:13:43.691Z,14.70
2022-10-14T20:16:11.973Z,14.60
2022-10-14T20:18:39.447Z,14.60
2022-10-14T20:21:11.437Z,14.60
2022-10-14T20:23:38.878Z,14.60
2022-10-14T20:26:10.733Z,14.60
2022-10-14T20:28:38.801Z,14.60
2022-10-14T20:31:06.706Z,14.50
2022-10-14T20:33:34.033Z,14.50
2022-10-14T20:36:01.814Z,14.50
2022-10-14T20:38:30.408Z,14.50
2022-10-14T20:41:04.576Z,14.50
2022-10-14T20:43:31.778Z,14.60
2022-10-14T20:45:58.725Z,14.60
2022-10-14T20:48:25.665Z,14.60
2022-10-14T20:50:52.626Z,14.50
2022-10-14T20:53:19.999Z,14.50
2022-10-14T20:55:49.594Z,14.60
2022-10-14T20:58:16.447Z,14.60
2022-10-14T21:00:43.514Z,14.60
2022-10-14T21:03:10.586Z,14.50
2022-10-14T21:05:37.804Z,14.50
2022-10-14T21:08:05.429Z,14.50
2022-10-14T21:10:32.484Z,14.50
2022-10-14T21:13:00.776Z,14.50
2022-10-14T21:15:28.699Z,14.50
2022-10-14T21:17:55.642Z,14.50
2022-10-14T21:20:22.598Z,14.50
2022-10-14T21:22:49.503Z,14.50
2022-10-14T21:25:16.694Z,14.40
2022-10-14T21:27:43.549Z,14.40
2022-10-14T21:30:13.891Z,14.40
2022-10-14T21:32:40.863Z,14.50
2022-10-14T21:35:08.343Z,14.40
2022-10-14T21:37:35.340Z,14.50
2022-10-14T21:40:02.393Z,14.40
2022-10-14T21:42:29.441Z,14.40
2022-10-14T21:44:57.420Z,14.40
2022-10-14T21:47:25.711Z,14.40
2022-10-14T21:49:52.543Z,14.40
2022-10-14T21:52:19.806Z,14.40
2022-10-14T21:54:46.851Z,14.30
2022-10-14T21:57:13.874Z,14.30
2022-10-14T21:59:40.984Z,14.40
2022-10-14T22:02:07.845Z,14.40
2022-10-14T22:04:38.295Z,14.40
2022-10-14T22:07:05.301Z,14.40
2022-10-14T22:09:34.311Z,14.50
2022-10-14T22:12:01.364Z,14.50
2022-10-14T22:14:29.936Z,14.50
2022-10-14T22:16:57.094Z,14.50
2022-10-14T22:19:24.365Z,14.50
2022-10-14T22:21:52.629Z,14.60
2022-10-14T22:24:19.581Z,14.60
2022-10-14T22:26:50.211Z,14.60
2022-10-14T22:29:17.998Z,14.60
2022-10-14T22:31:46.370Z,14.60
2022-10-14T22:34:17.430Z,14.60
2022-10-14T22:36:45.108Z,14.60
2022-10-14T22:39:16.576Z,14.60
2022-10-14T22:41:45.258Z,14.50
2022-10-14T22:44:12.808Z,14.50
2022-10-14T22:46:40.371Z,14.50
2022-10-14T22:49:07.776Z,14.50
2022-10-14T22:51:37.976Z,14.50
2022-10-14T22:54:05.216Z,14.50
2022-10-14T22:56:33.692Z,14.50
2022-10-14T22:59:03.610Z,14.50
2022-10-14T23:01:31.375Z,14.40
2022-10-14T23:03:59.816Z,14.40
2022-10-14T23:06:28.349Z,14.40
2022-10-14T23:08:56.223Z,14.40
2022-10-14T23:11:25.120Z,14.40
2022-10-14T23:13:53.902Z,14.40
2022-10-14T23:16:22.697Z,14.40
2022-10-14T23:18:50.994Z,14.40
2022-10-14T23:21:23.435Z,14.40
2022-10-14T23:23:52.150Z,14.40
2022-10-14T23:26:21.660Z,14.40
2022-10-14T23:28:49.833Z,14.40
2022-10-14T23:31:21.614Z,14.40
2022-10-14T23:33:49.251Z,14.40
2022-10-14T23:36:16.319Z,14.40
2022-10-14T23:38:43.889Z,14.40
2022-10-14T23:41:13.835Z,14.40
2022-10-14T23:43:41.931Z,14.50
2022-10-14T23:46:09.211Z,14.40
2022-10-14T23:48:37.756Z,14.40
2022-10-14T23:51:06.341Z,14.40
2022-10-14T23:53:34.571Z,14.40
2022-10-14T23:56:01.894Z,14.40
2022-10-14T23:58:29.217Z,14.50
